Terminal Aerodrome Forecast
Issued by NWS Albany, NY

Home | Current Version | Previous Version | Text Only | Print | Product List | Glossary On
Versions: 1 2 3 4 5 6 7 8 9 10 11 12 13 14 15 16 17 18 19 20 21 22 23 24 25
000
FTUS41 KALY 200500
TAFGFL
TAF
KGFL 200531Z 2006/2106 05005KT P6SM SCT025
      TEMPO 2006/2010 BKN025
     FM201000 VRB03KT P6SM SCT035
     FM201400 VRB03KT P6SM SCT050
     FM201800 00000KT P6SM BKN100
     FM210100 VRB03KT P6SM SCT025 BKN100=

USA.gov is the U.S. government's official web portal to all federal, state and local government web resources and services.